首页
METAR-TAF:

METAR-TAF

机场 :

Manassas Regional Airport (Harry P. Davis Field)

馬納薩斯, 弗吉尼亚州, 美国

纬度: 38-43N, 经度: 077-31W, 海拔: 59米

当前天气观测

该预报发布于1小时和7分钟前的14:56 UTC
风速5节,风向北转西北
温度 1°C
湿度 93%
气压 1028 hPa
能見度: 9.7公里
阴天层高于1200英尺
轻雾

METAR: KHEF 131456Z 34005KT 6SM BR OVC012 01/00 A3035 RMK AO2 SLP286 P0003 60004 T00110000 56010

时间: 11:03 (16:03 UTC)


TAF: 丢失

超过4000个机场的气象观测和天气预报(METAR&TAF报告)。

可查询的气象台以黄色和红色小点在地图上表示。

将鼠标移到小点上方,可查看气象台名称。

然后点击查看天气观测和预报。

如需切换地图:点击带黑十字的绿色按钮放大地图;点击带横线的绿色按钮缩小地图;或者点击绿色箭头查看邻近地区的地图。


METAR-TAF: